Otis, Colorado
Current Conditions -  °F | °C
As of 2:53 PM on Sunday 25 Jan 2015 (Local Time) from KAKO Reporting Station
Clear Clear  
Wind Chill: 50°   Ceiling: Unl
Heat Index: 50°   Visibility: 10mi
Dew Point: 32°   Wind: 9mph
Humidity: 50%   Direction: 270°W
Pressure: 30.09"   Gusts: NA
Location:  40.15°N, 102.96°W
Report Text: KAKO 252153Z AUTO 27008KT 10SM CLR 10/00 A3009 RMK AO2 SLP188 T01000000
Loading
Personal Weather Stations






























Interactive Weather Map New forecast layout! Learn more

10-Day Weather Forecast

Advertisements
Track Severe Weather on mobile